createdAt,value
2018-05-08T00:00:25.486Z,4.20
2018-05-08T00:02:53.013Z,4.45
2018-05-08T00:05:20.575Z,4.95
2018-05-08T00:07:48.139Z,3.80
2018-05-08T00:10:15.695Z,5.35
2018-05-08T00:12:43.263Z,5.22
2018-05-08T00:15:10.807Z,4.57
2018-05-08T00:17:38.349Z,4.47
2018-05-08T00:20:05.881Z,4.62
2018-05-08T00:22:33.442Z,5.32
2018-05-08T00:25:01.010Z,4.95
2018-05-08T00:27:28.574Z,5.25
2018-05-08T00:29:56.125Z,4.95
2018-05-08T00:32:23.663Z,4.60
2018-05-08T00:34:51.241Z,4.75
2018-05-08T00:37:18.773Z,3.80
2018-05-08T00:39:47.077Z,3.65
2018-05-08T00:42:14.646Z,4.47
2018-05-08T00:44:42.210Z,4.15
2018-05-08T00:47:09.769Z,4.40
2018-05-08T00:49:37.313Z,4.78
2018-05-08T00:52:05.639Z,4.53
2018-05-08T00:54:44.799Z,4.40
2018-05-08T00:57:12.350Z,5.25
2018-05-08T00:59:39.893Z,4.43
2018-05-08T01:02:07.425Z,4.97
2018-05-08T01:04:35.723Z,4.70
2018-05-08T01:07:03.279Z,5.82
2018-05-08T01:09:30.828Z,6.37
2018-05-08T01:11:59.162Z,5.80
2018-05-08T01:14:26.709Z,5.12
2018-05-08T01:16:54.299Z,4.80
2018-05-08T01:19:21.879Z,4.50
2018-05-08T01:21:49.442Z,6.43
2018-05-08T01:24:17.009Z,4.82
2018-05-08T01:26:44.557Z,5.07
2018-05-08T01:29:12.093Z,4.57
2018-05-08T01:31:39.661Z,4.37
2018-05-08T01:34:07.226Z,4.05
2018-05-08T01:36:34.788Z,4.15
2018-05-08T01:39:02.337Z,4.43
2018-05-08T01:41:29.913Z,4.50
2018-05-08T01:43:57.453Z,3.75
2018-05-08T01:46:24.988Z,3.87
2018-05-08T01:48:52.555Z,3.92
2018-05-08T01:51:20.862Z,4.80
2018-05-08T01:53:48.471Z,4.22
2018-05-08T01:56:16.007Z,4.28
2018-05-08T01:58:43.542Z,4.90
2018-05-08T02:01:11.825Z,5.30
2018-05-08T02:03:40.158Z,5.18
2018-05-08T02:06:07.720Z,6.15
2018-05-08T02:08:35.268Z,5.05
2018-05-08T02:11:02.804Z,5.65
2018-05-08T02:13:31.122Z,5.15
2018-05-08T02:15:58.678Z,5.00
2018-05-08T02:18:26.215Z,6.03
2018-05-08T02:20:53.774Z,4.53
2018-05-08T02:23:22.098Z,5.95
2018-05-08T02:25:49.654Z,4.30
2018-05-08T02:28:17.172Z,4.85
2018-05-08T02:30:45.562Z,5.00
2018-05-08T02:33:13.896Z,5.28
2018-05-08T02:35:41.454Z,5.70
2018-05-08T02:38:08.991Z,4.90
2018-05-08T02:40:36.546Z,5.18
2018-05-08T02:43:04.114Z,5.03
2018-05-08T02:45:31.666Z,4.97
2018-05-08T02:47:59.994Z,5.25
2018-05-08T02:50:27.558Z,4.82
2018-05-08T02:52:55.125Z,4.65
2018-05-08T02:55:22.679Z,4.25
2018-05-08T02:57:50.216Z,4.57
2018-05-08T03:00:17.766Z,4.65
2018-05-08T03:02:46.067Z,5.15
2018-05-08T03:05:13.590Z,4.68
2018-05-08T03:07:41.130Z,4.90
2018-05-08T03:10:08.663Z,4.72
2018-05-08T03:12:36.190Z,4.57
2018-05-08T03:15:04.510Z,4.28
2018-05-08T03:17:32.061Z,4.60
2018-05-08T03:19:59.589Z,4.65
2018-05-08T03:22:27.240Z,3.55
2018-05-08T03:24:55.490Z,3.92
2018-05-08T03:27:23.047Z,4.60
2018-05-08T03:29:50.569Z,3.95
2018-05-08T03:32:18.867Z,4.70
2018-05-08T03:34:46.397Z,4.15
2018-05-08T03:37:13.946Z,4.15
2018-05-08T03:39:41.501Z,5.03
2018-05-08T03:42:09.043Z,4.25
2018-05-08T03:44:36.595Z,4.35
2018-05-08T03:47:04.158Z,4.50
2018-05-08T03:49:31.761Z,4.20
2018-05-08T03:51:59.295Z,3.97
2018-05-08T03:54:26.825Z,4.87
2018-05-08T03:56:54.355Z,4.97
2018-05-08T03:59:21.877Z,6.28
2018-05-08T04:02:01.339Z,10.07
2018-05-08T04:04:40.875Z,9.98
2018-05-08T04:07:20.157Z,9.23
2018-05-08T04:09:48.445Z,7.35
2018-05-08T04:12:16.742Z,5.90
2018-05-08T04:14:44.297Z,5.80
2018-05-08T04:17:11.859Z,5.35
2018-05-08T04:19:40.405Z,5.70
2018-05-08T04:22:08.195Z,5.60
2018-05-08T04:24:35.805Z,5.50
2018-05-08T04:27:03.348Z,4.70
2018-05-08T04:29:31.653Z,4.50
2018-05-08T04:31:59.179Z,4.45
2018-05-08T04:34:27.483Z,4.30
2018-05-08T04:36:55.057Z,4.20
2018-05-08T04:39:22.590Z,4.25
2018-05-08T04:41:50.900Z,4.37
2018-05-08T04:44:18.428Z,4.57
2018-05-08T04:46:45.972Z,5.50
2018-05-08T04:49:13.490Z,4.60
2018-05-08T04:51:41.023Z,5.55
2018-05-08T04:54:09.346Z,5.30
2018-05-08T04:56:36.866Z,5.37
2018-05-08T04:59:05.187Z,4.82
2018-05-08T05:01:32.747Z,5.40
2018-05-08T05:04:00.311Z,5.05
2018-05-08T05:06:27.878Z,5.30
2018-05-08T05:08:55.414Z,5.20
2018-05-08T05:11:23.740Z,5.28
2018-05-08T05:13:51.283Z,5.80
2018-05-08T05:16:18.827Z,5.62
2018-05-08T05:18:46.428Z,6.97
2018-05-08T05:21:13.985Z,6.15
2018-05-08T05:23:41.511Z,5.43
2018-05-08T05:26:09.810Z,5.80
2018-05-08T05:28:37.362Z,5.90
2018-05-08T05:31:04.930Z,6.60
2018-05-08T05:33:32.466Z,7.00
2018-05-08T05:35:59.999Z,6.65
2018-05-08T05:38:27.563Z,6.72
2018-05-08T05:40:55.143Z,7.12
2018-05-08T05:43:22.705Z,6.28
2018-05-08T05:45:50.243Z,6.75
2018-05-08T05:48:17.802Z,6.00
2018-05-08T05:50:45.338Z,5.95
2018-05-08T05:53:13.646Z,6.43
2018-05-08T05:55:41.197Z,6.25
2018-05-08T05:58:08.731Z,5.87
2018-05-08T06:00:36.263Z,6.00
2018-05-08T06:03:03.822Z,5.32
2018-05-08T06:05:31.349Z,7.00
2018-05-08T06:07:58.875Z,6.07
2018-05-08T06:10:26.438Z,6.65
2018-05-08T06:12:53.987Z,6.53
2018-05-08T06:15:21.534Z,6.25
2018-05-08T06:17:49.061Z,6.00
2018-05-08T06:20:16.607Z,6.12
2018-05-08T06:22:44.948Z,5.93
2018-05-08T06:25:12.517Z,6.00
2018-05-08T06:27:40.055Z,5.50
2018-05-08T06:30:07.588Z,5.15
2018-05-08T06:32:35.911Z,5.20
2018-05-08T06:35:03.477Z,5.80
2018-05-08T06:37:31.094Z,4.95
2018-05-08T06:39:59.488Z,4.68
2018-05-08T06:42:26.982Z,5.12
2018-05-08T06:44:54.522Z,5.05
2018-05-08T06:47:22.099Z,5.00
2018-05-08T06:49:49.666Z,4.80
2018-05-08T06:52:17.200Z,5.75
2018-05-08T06:54:44.737Z,5.00
2018-05-08T06:57:12.290Z,5.63
2018-05-08T06:59:39.821Z,5.20
2018-05-08T07:02:07.367Z,5.68
2018-05-08T07:04:34.935Z,5.90
2018-05-08T07:07:02.506Z,5.45
2018-05-08T07:09:30.094Z,5.55
2018-05-08T07:11:57.674Z,5.45
2018-05-08T07:14:25.242Z,5.32
2018-05-08T07:16:52.798Z,4.43
2018-05-08T07:19:20.407Z,5.03
2018-05-08T07:21:47.941Z,4.93
2018-05-08T07:24:15.506Z,5.10
2018-05-08T07:26:43.057Z,4.75
2018-05-08T07:29:10.622Z,4.55
2018-05-08T07:31:38.168Z,4.95
2018-05-08T07:34:05.731Z,3.75
2018-05-08T07:36:33.274Z,4.30
2018-05-08T07:39:00.835Z,3.50
2018-05-08T07:41:28.406Z,3.50
2018-05-08T07:43:55.981Z,4.70
2018-05-08T07:46:23.540Z,3.50
2018-05-08T07:48:51.109Z,4.18
2018-05-08T07:51:18.674Z,3.90
2018-05-08T07:53:46.207Z,4.07
2018-05-08T07:56:13.770Z,4.78
2018-05-08T07:58:41.337Z,4.00
2018-05-08T08:01:08.906Z,4.97
2018-05-08T08:03:36.508Z,4.57
2018-05-08T08:06:04.131Z,4.30
2018-05-08T08:08:31.722Z,4.40
2018-05-08T08:10:59.326Z,4.90
2018-05-08T08:13:26.903Z,3.67
2018-05-08T08:18:29.148Z,5.00
2018-05-08T08:20:57.422Z,3.90
2018-05-08T08:23:24.995Z,3.28
2018-05-08T08:25:52.551Z,2.95
2018-05-08T08:28:20.112Z,3.03
2018-05-08T08:30:47.782Z,4.00
2018-05-08T08:33:15.333Z,2.90
2018-05-08T08:35:42.880Z,2.95
2018-05-08T08:38:10.425Z,3.00
2018-05-08T08:40:38.787Z,2.58
2018-05-08T08:43:06.398Z,3.10
2018-05-08T08:45:33.978Z,2.60
2018-05-08T08:48:01.543Z,2.78
2018-05-08T08:50:29.074Z,3.05
2018-05-08T08:52:57.382Z,2.60
2018-05-08T08:55:24.925Z,3.12
2018-05-08T08:57:53.216Z,3.00
2018-05-08T09:00:20.771Z,2.95
2018-05-08T09:02:49.064Z,3.15
2018-05-08T09:05:16.602Z,2.70
2018-05-08T09:07:44.142Z,3.30
2018-05-08T09:10:11.705Z,3.30
2018-05-08T09:12:39.275Z,3.50
2018-05-08T09:15:06.848Z,3.20
2018-05-08T09:17:34.414Z,3.42
2018-05-08T09:20:01.987Z,2.90
2018-05-08T09:22:29.554Z,3.10
2018-05-08T09:24:57.109Z,3.42
2018-05-08T09:27:24.770Z,3.37
2018-05-08T09:29:52.274Z,2.95
2018-05-08T09:32:19.842Z,2.50
2018-05-08T09:34:47.401Z,2.97
2018-05-08T09:37:14.954Z,2.62
2018-05-08T09:39:43.265Z,3.03
2018-05-08T09:42:10.872Z,2.65
2018-05-08T09:44:38.409Z,2.80
2018-05-08T09:47:05.990Z,2.83
2018-05-08T09:49:33.580Z,2.45
2018-05-08T09:52:01.882Z,2.60
2018-05-08T09:54:29.445Z,2.45
2018-05-08T09:56:56.977Z,2.80
2018-05-08T09:59:24.597Z,3.00
2018-05-08T10:01:52.226Z,2.53
2018-05-08T10:04:20.534Z,2.33
2018-05-08T10:06:48.132Z,2.30
2018-05-08T10:09:15.656Z,2.28
2018-05-08T10:11:43.222Z,3.00
2018-05-08T10:14:10.790Z,3.53
2018-05-08T10:16:38.369Z,2.55
2018-05-08T10:19:05.963Z,2.30
2018-05-08T10:21:33.589Z,2.33
2018-05-08T10:24:01.140Z,2.40
2018-05-08T10:26:28.744Z,2.40
2018-05-08T10:28:56.388Z,2.33
2018-05-08T10:31:23.974Z,2.30
2018-05-08T10:33:51.521Z,2.43
2018-05-08T10:36:19.079Z,2.70
2018-05-08T10:38:46.638Z,2.30
2018-05-08T10:41:14.204Z,2.20
2018-05-08T10:43:41.761Z,2.50
2018-05-08T10:46:09.292Z,2.30
2018-05-08T10:48:36.901Z,1.97
2018-05-08T10:51:04.434Z,2.90
2018-05-08T10:53:32.764Z,2.10
2018-05-08T10:56:00.326Z,2.47
2018-05-08T10:58:27.870Z,3.07
2018-05-08T11:00:55.434Z,2.03
2018-05-08T11:03:22.970Z,1.97
2018-05-08T11:05:50.501Z,2.60
2018-05-08T11:08:18.061Z,2.40
2018-05-08T11:10:45.593Z,2.30
2018-05-08T11:13:13.149Z,2.20
2018-05-08T11:15:40.705Z,2.20
2018-05-08T11:18:08.257Z,2.07
2018-05-08T11:20:36.582Z,2.10
2018-05-08T11:23:04.123Z,2.20
2018-05-08T11:25:31.687Z,2.20
2018-05-08T11:27:59.243Z,2.57
2018-05-08T11:30:26.781Z,2.27
2018-05-08T11:32:54.337Z,1.80
2018-05-08T11:35:21.874Z,2.00
2018-05-08T11:37:49.477Z,2.20
2018-05-08T11:40:17.787Z,2.50
2018-05-08T11:42:45.350Z,2.60
2018-05-08T11:45:12.901Z,2.10
2018-05-08T11:47:40.471Z,2.30
2018-05-08T11:50:08.047Z,2.37
2018-05-08T11:52:35.647Z,2.73
2018-05-08T11:55:03.235Z,2.80
2018-05-08T11:57:30.784Z,2.27
2018-05-08T11:59:58.348Z,2.77
2018-05-08T12:02:25.888Z,2.00
2018-05-08T12:04:53.461Z,2.50
2018-05-08T12:07:20.994Z,2.20
2018-05-08T12:09:48.544Z,2.33
2018-05-08T12:12:16.869Z,2.43
2018-05-08T12:14:44.426Z,2.80
2018-05-08T12:17:11.956Z,2.60
2018-05-08T12:19:40.254Z,2.50
2018-05-08T12:22:07.818Z,2.40
2018-05-08T12:24:35.497Z,2.20
2018-05-08T12:27:03.032Z,2.70
2018-05-08T12:29:31.350Z,2.50
2018-05-08T12:31:58.891Z,2.20
2018-05-08T12:34:26.519Z,2.27
2018-05-08T12:36:54.073Z,2.30
2018-05-08T12:39:21.612Z,2.60
2018-05-08T12:41:49.176Z,2.97
2018-05-08T12:44:16.737Z,2.40
2018-05-08T12:46:44.422Z,2.50
2018-05-08T12:49:11.900Z,2.73
2018-05-08T12:51:39.462Z,3.00
2018-05-08T12:54:07.027Z,2.20
2018-05-08T12:56:35.353Z,2.27
2018-05-08T12:59:02.997Z,2.57
2018-05-08T13:01:30.509Z,2.80
2018-05-08T13:03:58.053Z,3.03
2018-05-08T13:06:25.631Z,2.80
2018-05-08T13:08:53.164Z,2.50
2018-05-08T13:11:20.849Z,2.37
2018-05-08T13:13:48.480Z,2.80
2018-05-08T13:16:16.842Z,2.70
2018-05-08T13:18:44.451Z,2.73
2018-05-08T13:21:12.119Z,2.10
2018-05-08T13:23:39.662Z,2.53
2018-05-08T13:26:08.051Z,2.43
2018-05-08T13:28:35.626Z,2.73
2018-05-08T13:31:03.245Z,2.30
2018-05-08T13:33:30.818Z,2.60
2018-05-08T13:35:58.394Z,2.63
2018-05-08T13:38:26.731Z,2.50
2018-05-08T13:40:54.282Z,2.87
2018-05-08T13:43:21.833Z,2.47
2018-05-08T13:45:49.385Z,2.50
2018-05-08T13:48:16.973Z,2.00
2018-05-08T13:50:44.599Z,2.80
2018-05-08T13:53:12.908Z,2.60
2018-05-08T13:55:40.450Z,2.20
2018-05-08T13:58:08.827Z,2.10
2018-05-08T14:00:37.125Z,2.33
2018-05-08T14:03:05.455Z,2.50
2018-05-08T14:05:33.061Z,2.40
2018-05-08T14:08:00.587Z,2.50
2018-05-08T14:10:28.121Z,2.73
2018-05-08T14:12:55.654Z,2.60
2018-05-08T14:15:24.039Z,2.50
2018-05-08T14:17:51.569Z,2.77
2018-05-08T14:20:19.154Z,2.80
2018-05-08T14:22:47.486Z,2.63
2018-05-08T14:25:15.036Z,2.13
2018-05-08T14:27:42.598Z,2.77
2018-05-08T14:30:10.148Z,2.47
2018-05-08T14:32:37.690Z,3.87
2018-05-08T14:35:06.022Z,2.40
2018-05-08T14:37:33.577Z,2.70
2018-05-08T14:40:01.115Z,2.57
2018-05-08T14:42:28.646Z,2.50
2018-05-08T14:44:56.211Z,2.50
2018-05-08T14:47:23.787Z,3.00
2018-05-08T14:49:51.379Z,2.40
2018-05-08T14:52:18.919Z,2.33
2018-05-08T14:54:47.250Z,2.50
2018-05-08T14:57:14.816Z,2.30
2018-05-08T14:59:42.351Z,2.57
2018-05-08T15:02:09.943Z,2.50
2018-05-08T15:04:37.533Z,3.30
2018-05-08T15:07:05.122Z,2.60
2018-05-08T15:09:33.548Z,2.70
2018-05-08T15:12:01.110Z,2.50
2018-05-08T15:14:28.679Z,2.60
2018-05-08T15:16:56.228Z,2.50
2018-05-08T15:19:23.809Z,2.17
2018-05-08T15:21:51.382Z,2.27
2018-05-08T15:24:18.962Z,2.60
2018-05-08T15:26:46.500Z,2.33
2018-05-08T15:29:14.047Z,2.33
2018-05-08T15:31:41.590Z,2.70
2018-05-08T15:34:09.900Z,2.10
2018-05-08T15:36:37.459Z,1.80
2018-05-08T15:39:05.846Z,2.00
2018-05-08T15:41:33.452Z,1.70
2018-05-08T15:44:00.989Z,1.97
2018-05-08T15:46:28.523Z,2.40
2018-05-08T15:48:56.834Z,1.90
2018-05-08T15:51:24.389Z,2.50
2018-05-08T15:53:51.946Z,2.00
2018-05-08T15:56:19.535Z,2.43
2018-05-08T15:58:47.117Z,2.00
2018-05-08T16:01:14.681Z,2.77
2018-05-08T16:03:42.246Z,2.37
2018-05-08T16:06:09.814Z,2.43
2018-05-08T16:08:37.379Z,2.50
2018-05-08T16:11:04.950Z,2.23
2018-05-08T16:13:32.733Z,2.20
2018-05-08T16:16:00.872Z,2.57
2018-05-08T16:18:28.415Z,2.00
2018-05-08T16:20:56.043Z,2.10
2018-05-08T16:23:24.475Z,2.27
2018-05-08T16:25:52.028Z,2.20
2018-05-08T16:28:19.584Z,1.90
2018-05-08T16:30:47.142Z,1.90
2018-05-08T16:33:14.681Z,2.33
2018-05-08T16:35:43.015Z,3.00
2018-05-08T16:38:10.623Z,2.20
2018-05-08T16:40:38.190Z,2.13
2018-05-08T16:43:06.547Z,2.50
2018-05-08T16:45:34.136Z,2.40
2018-05-08T16:48:01.699Z,2.40
2018-05-08T16:50:30.034Z,2.20
2018-05-08T16:52:57.583Z,2.25
2018-05-08T16:55:25.159Z,2.00
2018-05-08T16:57:52.700Z,2.33
2018-05-08T17:00:20.307Z,1.77
2018-05-08T17:02:47.874Z,1.90
2018-05-08T17:05:15.413Z,2.20
2018-05-08T17:07:42.973Z,1.92
2018-05-08T17:10:10.527Z,1.95
2018-05-08T17:12:38.099Z,2.10
2018-05-08T17:15:05.712Z,2.03
2018-05-08T17:17:33.283Z,2.17
2018-05-08T17:20:01.665Z,1.90
2018-05-08T17:22:29.239Z,1.65
2018-05-08T17:24:57.580Z,1.85
2018-05-08T17:27:25.140Z,2.00
2018-05-08T17:29:52.702Z,2.43
2018-05-08T17:32:20.241Z,1.92
2018-05-08T17:34:47.787Z,2.33
2018-05-08T17:37:16.115Z,2.27
2018-05-08T17:39:43.697Z,2.23
2018-05-08T17:42:11.294Z,2.17
2018-05-08T17:44:39.617Z,1.83
2018-05-08T17:47:07.157Z,2.05
2018-05-08T17:49:34.707Z,2.05
2018-05-08T17:52:03.039Z,2.03
2018-05-08T17:54:30.635Z,2.12
2018-05-08T17:56:58.199Z,2.28
2018-05-08T17:59:26.516Z,1.90
2018-05-08T18:01:54.073Z,1.90
2018-05-08T18:04:21.664Z,1.90
2018-05-08T18:06:49.216Z,1.62
2018-05-08T18:09:16.760Z,2.33
2018-05-08T18:11:45.129Z,1.70
2018-05-08T18:14:13.524Z,1.67
2018-05-08T18:16:41.854Z,1.70
2018-05-08T18:19:09.399Z,1.92
2018-05-08T18:21:36.976Z,1.65
2018-05-08T18:24:04.566Z,1.83
2018-05-08T18:26:32.120Z,1.58
2018-05-08T18:28:59.677Z,1.80
2018-05-08T18:31:27.255Z,2.33
2018-05-08T18:33:54.800Z,2.08
2018-05-08T18:36:22.383Z,1.80
2018-05-08T18:38:49.950Z,1.83
2018-05-08T18:41:17.519Z,2.05
2018-05-08T18:43:45.104Z,2.12
2018-05-08T18:46:13.406Z,2.35
2018-05-08T18:48:41.002Z,1.70
2018-05-08T18:51:08.542Z,1.80
2018-05-08T18:53:36.082Z,2.40
2018-05-08T18:56:04.447Z,1.70
2018-05-08T18:58:32.001Z,1.70
2018-05-08T19:00:59.541Z,2.10
2018-05-08T19:03:27.111Z,2.00
2018-05-08T19:05:54.918Z,2.08
2018-05-08T19:08:23.227Z,1.80
2018-05-08T19:10:56.472Z,1.58
2018-05-08T19:13:24.064Z,1.70
2018-05-08T19:15:57.862Z,1.70
2018-05-08T19:18:31.151Z,2.08
2018-05-08T19:20:58.843Z,2.17
2018-05-08T19:23:26.431Z,2.33
2018-05-08T19:25:53.993Z,2.28
2018-05-08T19:28:27.274Z,1.80
2018-05-08T19:30:59.914Z,2.03
2018-05-08T19:33:27.515Z,2.30
2018-05-08T19:36:01.495Z,2.17
2018-05-08T19:38:29.083Z,2.40
2018-05-08T19:40:57.410Z,2.25
2018-05-08T19:43:24.943Z,2.10
2018-05-08T19:45:52.506Z,2.10
2018-05-08T19:48:20.042Z,2.40
2018-05-08T19:50:47.569Z,2.35
2018-05-08T19:53:15.130Z,2.37
2018-05-08T19:55:42.745Z,2.45
2018-05-08T19:58:11.051Z,2.20
2018-05-08T20:00:38.611Z,2.45
2018-05-08T20:03:06.195Z,1.92
2018-05-08T20:05:33.775Z,2.20
2018-05-08T20:08:01.350Z,2.45
2018-05-08T20:10:28.900Z,2.35
2018-05-08T20:12:56.462Z,2.47
2018-05-08T20:15:24.116Z,2.47
2018-05-08T20:17:51.659Z,2.70
2018-05-08T20:20:19.208Z,2.35
2018-05-08T20:22:47.529Z,2.00
2018-05-08T20:25:15.128Z,2.35
2018-05-08T20:27:42.670Z,2.90
2018-05-08T20:30:10.249Z,2.50
2018-05-08T20:32:37.786Z,2.28
2018-05-08T20:35:05.337Z,2.90
2018-05-08T20:37:32.939Z,2.90
2018-05-08T20:40:00.479Z,2.60
2018-05-08T20:42:28.039Z,2.92
2018-05-08T20:44:55.595Z,2.75
2018-05-08T20:47:23.154Z,2.78
2018-05-08T20:49:50.719Z,2.62
2018-05-08T20:52:18.278Z,3.30
2018-05-08T20:54:45.847Z,3.72
2018-05-08T20:57:13.387Z,4.10
2018-05-08T20:59:41.711Z,3.35
2018-05-08T21:02:09.275Z,3.60
2018-05-08T21:04:36.839Z,3.35
2018-05-08T21:07:04.379Z,3.45
2018-05-08T21:09:31.936Z,3.50
2018-05-08T21:12:00.258Z,3.75
2018-05-08T21:14:27.822Z,3.10
2018-05-08T21:16:55.373Z,3.37
2018-05-08T21:19:22.911Z,3.67
2018-05-08T21:21:50.448Z,2.90
2018-05-08T21:24:17.979Z,3.40
2018-05-08T21:26:45.538Z,2.20
2018-05-08T21:29:18.758Z,3.12
2018-05-08T21:31:46.320Z,2.85
2018-05-08T21:34:13.864Z,3.37
2018-05-08T21:36:41.419Z,3.17
2018-05-08T21:39:08.994Z,2.97
2018-05-08T21:41:36.578Z,2.70
2018-05-08T21:44:04.147Z,3.12
2018-05-08T21:46:31.742Z,2.95
2018-05-08T21:49:00.067Z,2.75
2018-05-08T21:51:27.616Z,3.10
2018-05-08T21:53:55.176Z,3.22
2018-05-08T21:56:22.730Z,3.30
2018-05-08T21:58:50.319Z,2.87
2018-05-08T22:01:17.884Z,3.20
2018-05-08T22:03:45.447Z,3.37
2018-05-08T22:06:12.989Z,3.12
2018-05-08T22:08:40.549Z,3.28
2018-05-08T22:11:08.127Z,3.53
2018-05-08T22:13:35.690Z,3.72
2018-05-08T22:16:03.241Z,3.90
2018-05-08T22:18:30.776Z,2.67
2018-05-08T22:20:58.334Z,3.10
2018-05-08T22:23:25.917Z,3.08
2018-05-08T22:25:54.214Z,3.12
2018-05-08T22:28:21.770Z,3.22
2018-05-08T22:30:49.339Z,3.20
2018-05-08T22:33:16.873Z,4.22
2018-05-08T22:35:44.438Z,3.20
2018-05-08T22:38:11.974Z,3.75
2018-05-08T22:40:39.529Z,3.17
2018-05-08T22:43:07.058Z,3.75
2018-05-08T22:45:34.619Z,3.87
2018-05-08T22:48:02.188Z,3.10
2018-05-08T22:50:29.726Z,3.75
2018-05-08T22:52:58.063Z,3.78
2018-05-08T22:55:25.632Z,3.45
2018-05-08T22:57:53.198Z,4.03
2018-05-08T23:00:21.703Z,3.55
2018-05-08T23:02:49.254Z,3.95
2018-05-08T23:05:16.798Z,3.47
2018-05-08T23:07:44.382Z,4.00
2018-05-08T23:10:11.942Z,3.58
2018-05-08T23:12:39.496Z,3.60
2018-05-08T23:15:07.062Z,3.30
2018-05-08T23:17:34.661Z,3.30
2018-05-08T23:20:02.184Z,3.20
2018-05-08T23:22:29.709Z,3.80
2018-05-08T23:24:58.020Z,4.15
2018-05-08T23:27:25.579Z,3.87
2018-05-08T23:29:53.195Z,4.00
2018-05-08T23:32:20.720Z,4.10
2018-05-08T23:34:48.266Z,4.10
2018-05-08T23:37:15.806Z,4.82
2018-05-08T23:39:44.126Z,4.55
2018-05-08T23:42:11.663Z,4.65
2018-05-08T23:44:40.055Z,4.37
2018-05-08T23:47:07.586Z,4.07
2018-05-08T23:49:35.183Z,4.20
2018-05-08T23:52:02.718Z,4.12
2018-05-08T23:54:30.268Z,4.75
2018-05-08T23:56:57.831Z,4.28
2018-05-08T23:59:25.382Z,4.47
